sensor_id;sensor_type;location;lat;lon;timestamp;temperature;humidity
44477;DHT22;30180;44.788;10.366;2023-08-24T00:00:28;27.80;56.50
44477;DHT22;30180;44.788;10.366;2023-08-24T00:02:56;27.80;56.50
44477;DHT22;30180;44.788;10.366;2023-08-24T00:05:24;27.80;56.50
44477;DHT22;30180;44.788;10.366;2023-08-24T00:07:53;27.80;56.60
44477;DHT22;30180;44.788;10.366;2023-08-24T00:10:21;27.80;56.60
44477;DHT22;30180;44.788;10.366;2023-08-24T00:12:49;27.80;56.60
44477;DHT22;30180;44.788;10.366;2023-08-24T00:15:19;27.80;56.60
44477;DHT22;30180;44.788;10.366;2023-08-24T00:17:47;27.80;56.60
44477;DHT22;30180;44.788;10.366;2023-08-24T00:20:17;27.80;56.60
44477;DHT22;30180;44.788;10.366;2023-08-24T00:22:47;27.80;56.60
44477;DHT22;30180;44.788;10.366;2023-08-24T00:25:15;27.80;56.60
44477;DHT22;30180;44.788;10.366;2023-08-24T00:27:45;27.80;56.60
44477;DHT22;30180;44.788;10.366;2023-08-24T00:30:14;27.80;56.70
44477;DHT22;30180;44.788;10.366;2023-08-24T00:32:43;27.80;56.70
44477;DHT22;30180;44.788;10.366;2023-08-24T00:35:12;27.80;56.70
44477;DHT22;30180;44.788;10.366;2023-08-24T00:37:41;27.80;56.70
44477;DHT22;30180;44.788;10.366;2023-08-24T00:40:09;27.80;56.70
44477;DHT22;30180;44.788;10.366;2023-08-24T00:42:38;27.80;56.70
44477;DHT22;30180;44.788;10.366;2023-08-24T00:45:08;27.80;56.70
44477;DHT22;30180;44.788;10.366;2023-08-24T00:47:37;27.80;56.70
44477;DHT22;30180;44.788;10.366;2023-08-24T00:50:09;27.80;56.70
44477;DHT22;30180;44.788;10.366;2023-08-24T00:52:38;27.80;56.70
44477;DHT22;30180;44.788;10.366;2023-08-24T00:55:08;27.80;56.80
44477;DHT22;30180;44.788;10.366;2023-08-24T00:57:37;27.80;56.80
44477;DHT22;30180;44.788;10.366;2023-08-24T01:00:08;27.80;56.80
44477;DHT22;30180;44.788;10.366;2023-08-24T01:02:37;27.80;56.80
44477;DHT22;30180;44.788;10.366;2023-08-24T01:05:06;27.80;56.80
44477;DHT22;30180;44.788;10.366;2023-08-24T01:07:38;27.80;56.80
44477;DHT22;30180;44.788;10.366;2023-08-24T01:10:09;27.80;56.90
44477;DHT22;30180;44.788;10.366;2023-08-24T01:12:59;27.80;56.90
44477;DHT22;30180;44.788;10.366;2023-08-24T01:15:33;27.80;56.90
44477;DHT22;30180;44.788;10.366;2023-08-24T01:18:10;27.80;56.90
44477;DHT22;30180;44.788;10.366;2023-08-24T01:20:40;27.80;56.80
44477;DHT22;30180;44.788;10.366;2023-08-24T01:23:22;27.80;56.90
44477;DHT22;30180;44.788;10.366;2023-08-24T01:26:04;27.80;56.90
44477;DHT22;30180;44.788;10.366;2023-08-24T01:28:33;27.80;56.90
44477;DHT22;30180;44.788;10.366;2023-08-24T01:31:03;27.80;56.90
44477;DHT22;30180;44.788;10.366;2023-08-24T01:33:32;27.80;57.00
44477;DHT22;30180;44.788;10.366;2023-08-24T01:36:01;27.80;56.90
44477;DHT22;30180;44.788;10.366;2023-08-24T01:38:30;27.80;57.00
44477;DHT22;30180;44.788;10.366;2023-08-24T01:41:09;27.80;57.00
44477;DHT22;30180;44.788;10.366;2023-08-24T01:43:39;27.80;57.00
44477;DHT22;30180;44.788;10.366;2023-08-24T01:46:12;27.80;57.00
44477;DHT22;30180;44.788;10.366;2023-08-24T01:48:43;27.80;57.00
44477;DHT22;30180;44.788;10.366;2023-08-24T01:51:12;27.80;57.00
44477;DHT22;30180;44.788;10.366;2023-08-24T01:53:42;27.80;57.10
44477;DHT22;30180;44.788;10.366;2023-08-24T01:56:13;27.80;57.00
44477;DHT22;30180;44.788;10.366;2023-08-24T01:58:41;27.80;57.10
44477;DHT22;30180;44.788;10.366;2023-08-24T02:01:10;27.80;57.10
44477;DHT22;30180;44.788;10.366;2023-08-24T02:03:39;27.80;57.10
44477;DHT22;30180;44.788;10.366;2023-08-24T02:06:08;27.80;57.10
44477;DHT22;30180;44.788;10.366;2023-08-24T02:08:37;27.80;57.10
44477;DHT22;30180;44.788;10.366;2023-08-24T02:11:05;27.80;57.10
44477;DHT22;30180;44.788;10.366;2023-08-24T02:13:35;27.80;57.10
44477;DHT22;30180;44.788;10.366;2023-08-24T02:16:04;27.80;57.10
44477;DHT22;30180;44.788;10.366;2023-08-24T02:18:32;27.80;57.10
44477;DHT22;30180;44.788;10.366;2023-08-24T02:21:07;27.80;57.20
44477;DHT22;30180;44.788;10.366;2023-08-24T02:23:35;27.80;57.10
44477;DHT22;30180;44.788;10.366;2023-08-24T02:26:04;27.80;57.20
44477;DHT22;30180;44.788;10.366;2023-08-24T02:28:32;27.80;57.10
44477;DHT22;30180;44.788;10.366;2023-08-24T02:31:02;27.80;57.20
44477;DHT22;30180;44.788;10.366;2023-08-24T02:33:31;27.80;57.20
44477;DHT22;30180;44.788;10.366;2023-08-24T02:35:59;27.80;57.20
44477;DHT22;30180;44.788;10.366;2023-08-24T02:38:28;27.90;57.20
44477;DHT22;30180;44.788;10.366;2023-08-24T02:41:02;27.80;57.20
44477;DHT22;30180;44.788;10.366;2023-08-24T02:43:31;27.80;57.20
44477;DHT22;30180;44.788;10.366;2023-08-24T02:46:02;27.80;57.20
44477;DHT22;30180;44.788;10.366;2023-08-24T02:48:31;27.80;57.20
44477;DHT22;30180;44.788;10.366;2023-08-24T02:51:02;27.80;57.20
44477;DHT22;30180;44.788;10.366;2023-08-24T02:53:31;27.80;57.20
44477;DHT22;30180;44.788;10.366;2023-08-24T02:55:59;27.80;57.20
44477;DHT22;30180;44.788;10.366;2023-08-24T02:58:28;27.80;57.20
44477;DHT22;30180;44.788;10.366;2023-08-24T03:00:57;27.80;57.20
44477;DHT22;30180;44.788;10.366;2023-08-24T03:03:27;27.80;57.30
44477;DHT22;30180;44.788;10.366;2023-08-24T03:05:56;27.80;57.30
44477;DHT22;30180;44.788;10.366;2023-08-24T03:08:25;27.80;57.30
44477;DHT22;30180;44.788;10.366;2023-08-24T03:10:53;27.80;57.30
44477;DHT22;30180;44.788;10.366;2023-08-24T03:13:22;27.80;57.30
44477;DHT22;30180;44.788;10.366;2023-08-24T03:15:50;27.80;57.30
44477;DHT22;30180;44.788;10.366;2023-08-24T03:18:19;27.80;57.30
44477;DHT22;30180;44.788;10.366;2023-08-24T03:20:49;27.80;57.30
44477;DHT22;30180;44.788;10.366;2023-08-24T03:23:17;27.80;57.30
44477;DHT22;30180;44.788;10.366;2023-08-24T03:25:46;27.80;57.30
44477;DHT22;30180;44.788;10.366;2023-08-24T03:28:14;27.80;57.30
44477;DHT22;30180;44.788;10.366;2023-08-24T03:30:46;27.90;57.40
44477;DHT22;30180;44.788;10.366;2023-08-24T03:33:15;27.80;57.40
44477;DHT22;30180;44.788;10.366;2023-08-24T03:35:43;27.80;57.40
44477;DHT22;30180;44.788;10.366;2023-08-24T03:38:13;27.80;57.40
44477;DHT22;30180;44.788;10.366;2023-08-24T03:40:42;27.80;57.40
44477;DHT22;30180;44.788;10.366;2023-08-24T03:43:11;27.80;57.40
44477;DHT22;30180;44.788;10.366;2023-08-24T03:45:39;27.80;57.40
44477;DHT22;30180;44.788;10.366;2023-08-24T03:48:06;27.80;57.40
44477;DHT22;30180;44.788;10.366;2023-08-24T03:50:35;27.80;57.40
44477;DHT22;30180;44.788;10.366;2023-08-24T03:53:03;27.80;57.40
44477;DHT22;30180;44.788;10.366;2023-08-24T03:55:33;27.90;57.50
44477;DHT22;30180;44.788;10.366;2023-08-24T03:58:02;27.80;57.40
44477;DHT22;30180;44.788;10.366;2023-08-24T04:00:30;27.90;57.50
44477;DHT22;30180;44.788;10.366;2023-08-24T04:02:58;27.80;57.50
44477;DHT22;30180;44.788;10.366;2023-08-24T04:05:27;27.90;57.50
44477;DHT22;30180;44.788;10.366;2023-08-24T04:07:55;27.80;57.50
44477;DHT22;30180;44.788;10.366;2023-08-24T04:10:24;27.80;57.40
44477;DHT22;30180;44.788;10.366;2023-08-24T04:12:53;27.80;57.40
44477;DHT22;30180;44.788;10.366;2023-08-24T04:15:22;27.80;57.50
44477;DHT22;30180;44.788;10.366;2023-08-24T04:17:50;27.80;57.50
44477;DHT22;30180;44.788;10.366;2023-08-24T04:20:19;27.80;57.50
44477;DHT22;30180;44.788;10.366;2023-08-24T04:22:48;27.80;57.40
44477;DHT22;30180;44.788;10.366;2023-08-24T04:25:16;27.80;57.50
44477;DHT22;30180;44.788;10.366;2023-08-24T04:27:44;27.80;57.50
44477;DHT22;30180;44.788;10.366;2023-08-24T04:30:14;27.80;57.50
44477;DHT22;30180;44.788;10.366;2023-08-24T04:32:42;27.90;57.60
44477;DHT22;30180;44.788;10.366;2023-08-24T04:35:11;27.80;57.50
44477;DHT22;30180;44.788;10.366;2023-08-24T04:37:39;27.80;57.50
44477;DHT22;30180;44.788;10.366;2023-08-24T04:40:08;27.80;57.50
44477;DHT22;30180;44.788;10.366;2023-08-24T04:42:37;27.90;57.60
44477;DHT22;30180;44.788;10.366;2023-08-24T04:45:07;27.80;57.50
44477;DHT22;30180;44.788;10.366;2023-08-24T04:47:37;27.80;57.50
44477;DHT22;30180;44.788;10.366;2023-08-24T04:50:07;27.80;57.50
44477;DHT22;30180;44.788;10.366;2023-08-24T04:52:36;27.80;57.50
44477;DHT22;30180;44.788;10.366;2023-08-24T04:55:05;27.80;57.50
44477;DHT22;30180;44.788;10.366;2023-08-24T04:57:33;27.80;57.60
44477;DHT22;30180;44.788;10.366;2023-08-24T05:00:01;27.80;57.60
44477;DHT22;30180;44.788;10.366;2023-08-24T05:02:32;27.80;57.50
44477;DHT22;30180;44.788;10.366;2023-08-24T05:05:02;27.80;57.60
44477;DHT22;30180;44.788;10.366;2023-08-24T05:07:30;27.80;57.60
44477;DHT22;30180;44.788;10.366;2023-08-24T05:09:59;27.80;57.60
44477;DHT22;30180;44.788;10.366;2023-08-24T05:12:27;27.80;57.60
44477;DHT22;30180;44.788;10.366;2023-08-24T05:14:56;27.80;57.60
44477;DHT22;30180;44.788;10.366;2023-08-24T05:17:24;27.80;57.60
44477;DHT22;30180;44.788;10.366;2023-08-24T05:19:55;27.80;57.60
44477;DHT22;30180;44.788;10.366;2023-08-24T05:22:24;27.80;57.60
44477;DHT22;30180;44.788;10.366;2023-08-24T05:24:53;27.80;57.60
44477;DHT22;30180;44.788;10.366;2023-08-24T05:27:21;27.80;57.60
44477;DHT22;30180;44.788;10.366;2023-08-24T05:29:49;27.80;57.60
44477;DHT22;30180;44.788;10.366;2023-08-24T05:32:18;27.80;57.60
44477;DHT22;30180;44.788;10.366;2023-08-24T05:34:46;27.80;57.60
44477;DHT22;30180;44.788;10.366;2023-08-24T05:37:14;27.80;57.60
44477;DHT22;30180;44.788;10.366;2023-08-24T05:39:44;27.80;57.70
44477;DHT22;30180;44.788;10.366;2023-08-24T05:42:13;27.80;57.70
44477;DHT22;30180;44.788;10.366;2023-08-24T05:44:41;27.80;57.60
44477;DHT22;30180;44.788;10.366;2023-08-24T05:47:09;27.80;57.70
44477;DHT22;30180;44.788;10.366;2023-08-24T05:49:37;27.80;57.70
44477;DHT22;30180;44.788;10.366;2023-08-24T05:52:06;27.80;57.70
44477;DHT22;30180;44.788;10.366;2023-08-24T05:54:36;27.80;57.70
44477;DHT22;30180;44.788;10.366;2023-08-24T05:57:05;27.80;57.60
44477;DHT22;30180;44.788;10.366;2023-08-24T05:59:34;27.80;57.70
44477;DHT22;30180;44.788;10.366;2023-08-24T06:02:03;27.80;57.70
44477;DHT22;30180;44.788;10.366;2023-08-24T06:04:31;27.80;57.70
44477;DHT22;30180;44.788;10.366;2023-08-24T06:06:59;27.80;57.70
44477;DHT22;30180;44.788;10.366;2023-08-24T06:09:28;27.80;57.70
44477;DHT22;30180;44.788;10.366;2023-08-24T06:11:56;27.80;57.70
44477;DHT22;30180;44.788;10.366;2023-08-24T06:14:26;27.80;57.70
44477;DHT22;30180;44.788;10.366;2023-08-24T06:16:54;27.80;57.70
44477;DHT22;30180;44.788;10.366;2023-08-24T06:19:23;27.80;57.70
44477;DHT22;30180;44.788;10.366;2023-08-24T06:21:51;27.80;57.80
44477;DHT22;30180;44.788;10.366;2023-08-24T06:24:19;27.80;57.70
44477;DHT22;30180;44.788;10.366;2023-08-24T06:26:48;27.80;57.80
44477;DHT22;30180;44.788;10.366;2023-08-24T06:29:16;27.80;57.70
44477;DHT22;30180;44.788;10.366;2023-08-24T06:31:46;27.80;57.70
44477;DHT22;30180;44.788;10.366;2023-08-24T06:34:14;27.80;57.80
44477;DHT22;30180;44.788;10.366;2023-08-24T06:36:42;27.80;57.70
44477;DHT22;30180;44.788;10.366;2023-08-24T06:39:10;27.80;57.70
44477;DHT22;30180;44.788;10.366;2023-08-24T06:41:39;27.80;57.80
44477;DHT22;30180;44.788;10.366;2023-08-24T06:44:07;27.80;57.70
44477;DHT22;30180;44.788;10.366;2023-08-24T06:46:36;27.80;57.80
44477;DHT22;30180;44.788;10.366;2023-08-24T06:49:06;27.80;57.80
44477;DHT22;30180;44.788;10.366;2023-08-24T06:51:37;27.80;57.80
44477;DHT22;30180;44.788;10.366;2023-08-24T06:54:05;27.80;57.80
44477;DHT22;30180;44.788;10.366;2023-08-24T06:56:33;27.80;57.80
44477;DHT22;30180;44.788;10.366;2023-08-24T06:59:02;27.80;57.80
44477;DHT22;30180;44.788;10.366;2023-08-24T07:01:30;27.80;57.80
44477;DHT22;30180;44.788;10.366;2023-08-24T07:03:58;27.90;57.80
44477;DHT22;30180;44.788;10.366;2023-08-24T07:06:28;27.80;57.80
44477;DHT22;30180;44.788;10.366;2023-08-24T07:08:56;27.80;57.80
44477;DHT22;30180;44.788;10.366;2023-08-24T07:11:25;27.80;57.80
44477;DHT22;30180;44.788;10.366;2023-08-24T07:13:53;27.80;57.80
44477;DHT22;30180;44.788;10.366;2023-08-24T07:16:21;27.80;57.80
44477;DHT22;30180;44.788;10.366;2023-08-24T07:18:50;27.80;58.50
44477;DHT22;30180;44.788;10.366;2023-08-24T07:21:18;27.80;57.80
44477;DHT22;30180;44.788;10.366;2023-08-24T07:23:48;27.80;57.80
44477;DHT22;30180;44.788;10.366;2023-08-24T07:26:16;27.80;57.80
44477;DHT22;30180;44.788;10.366;2023-08-24T07:28:44;27.80;57.80
44477;DHT22;30180;44.788;10.366;2023-08-24T07:31:12;27.80;57.80
44477;DHT22;30180;44.788;10.366;2023-08-24T07:33:42;27.80;57.80
44477;DHT22;30180;44.788;10.366;2023-08-24T07:36:11;27.80;57.90
44477;DHT22;30180;44.788;10.366;2023-08-24T07:38:39;27.80;57.80
44477;DHT22;30180;44.788;10.366;2023-08-24T07:41:09;27.80;57.90
44477;DHT22;30180;44.788;10.366;2023-08-24T07:43:38;27.80;57.80
44477;DHT22;30180;44.788;10.366;2023-08-24T07:46:07;27.80;57.80
44477;DHT22;30180;44.788;10.366;2023-08-24T07:48:36;27.80;57.80
44477;DHT22;30180;44.788;10.366;2023-08-24T07:51:04;27.80;57.80
44477;DHT22;30180;44.788;10.366;2023-08-24T07:53:33;27.80;57.90
44477;DHT22;30180;44.788;10.366;2023-08-24T07:56:01;27.80;57.80
44477;DHT22;30180;44.788;10.366;2023-08-24T07:58:31;27.80;57.90
44477;DHT22;30180;44.788;10.366;2023-08-24T08:00:59;27.80;57.90
44477;DHT22;30180;44.788;10.366;2023-08-24T08:03:28;27.80;57.90
44477;DHT22;30180;44.788;10.366;2023-08-24T08:05:57;27.80;57.90
44477;DHT22;30180;44.788;10.366;2023-08-24T08:08:26;27.80;57.90
44477;DHT22;30180;44.788;10.366;2023-08-24T08:10:58;27.80;57.90
44477;DHT22;30180;44.788;10.366;2023-08-24T08:13:27;27.80;57.90
44477;DHT22;30180;44.788;10.366;2023-08-24T08:16:03;27.80;57.90
44477;DHT22;30180;44.788;10.366;2023-08-24T08:18:32;27.80;57.90
44477;DHT22;30180;44.788;10.366;2023-08-24T08:21:01;27.80;57.90
44477;DHT22;30180;44.788;10.366;2023-08-24T08:23:30;27.80;57.90
44477;DHT22;30180;44.788;10.366;2023-08-24T08:25:58;27.80;57.90
44477;DHT22;30180;44.788;10.366;2023-08-24T08:28:27;27.90;58.00
44477;DHT22;30180;44.788;10.366;2023-08-24T08:30:55;27.90;58.00
44477;DHT22;30180;44.788;10.366;2023-08-24T08:33:25;27.90;58.00
44477;DHT22;30180;44.788;10.366;2023-08-24T08:35:53;27.90;58.00
44477;DHT22;30180;44.788;10.366;2023-08-24T08:38:21;27.90;58.00
44477;DHT22;30180;44.788;10.366;2023-08-24T08:40:55;27.90;58.00
44477;DHT22;30180;44.788;10.366;2023-08-24T08:43:24;27.90;58.00
44477;DHT22;30180;44.788;10.366;2023-08-24T08:45:54;27.90;58.00
44477;DHT22;30180;44.788;10.366;2023-08-24T08:48:26;27.90;58.00
44477;DHT22;30180;44.788;10.366;2023-08-24T08:50:57;27.90;58.00
44477;DHT22;30180;44.788;10.366;2023-08-24T08:53:28;27.90;58.10
44477;DHT22;30180;44.788;10.366;2023-08-24T08:55:56;27.90;58.10
44477;DHT22;30180;44.788;10.366;2023-08-24T08:58:31;27.90;58.10
44477;DHT22;30180;44.788;10.366;2023-08-24T09:01:01;27.90;58.10
44477;DHT22;30180;44.788;10.366;2023-08-24T09:03:32;27.90;58.10
44477;DHT22;30180;44.788;10.366;2023-08-24T09:06:03;27.90;58.10
44477;DHT22;30180;44.788;10.366;2023-08-24T09:08:32;27.90;58.10
44477;DHT22;30180;44.788;10.366;2023-08-24T09:11:00;27.90;58.10
44477;DHT22;30180;44.788;10.366;2023-08-24T09:13:30;27.90;58.20
44477;DHT22;30180;44.788;10.366;2023-08-24T09:16:04;27.90;58.20
44477;DHT22;30180;44.788;10.366;2023-08-24T09:18:38;27.90;58.20
44477;DHT22;30180;44.788;10.366;2023-08-24T09:21:11;27.90;58.10
44477;DHT22;30180;44.788;10.366;2023-08-24T09:23:43;27.90;58.20
44477;DHT22;30180;44.788;10.366;2023-08-24T09:26:12;27.90;58.20
44477;DHT22;30180;44.788;10.366;2023-08-24T09:28:42;27.90;58.20
44477;DHT22;30180;44.788;10.366;2023-08-24T09:31:12;27.90;58.20
44477;DHT22;30180;44.788;10.366;2023-08-24T09:33:44;27.90;58.20
44477;DHT22;30180;44.788;10.366;2023-08-24T09:36:14;27.90;58.20
44477;DHT22;30180;44.788;10.366;2023-08-24T09:38:46;27.90;58.20
44477;DHT22;30180;44.788;10.366;2023-08-24T09:41:16;27.90;58.20
44477;DHT22;30180;44.788;10.366;2023-08-24T09:43:45;27.90;58.20
44477;DHT22;30180;44.788;10.366;2023-08-24T09:46:18;27.90;58.50
44477;DHT22;30180;44.788;10.366;2023-08-24T09:48:54;27.90;58.20
44477;DHT22;30180;44.788;10.366;2023-08-24T09:51:26;27.90;58.30
44477;DHT22;30180;44.788;10.366;2023-08-24T09:53:57;27.90;58.20
44477;DHT22;30180;44.788;10.366;2023-08-24T09:56:28;27.90;58.20
44477;DHT22;30180;44.788;10.366;2023-08-24T09:58:59;27.90;58.20
44477;DHT22;30180;44.788;10.366;2023-08-24T10:01:28;27.90;58.20
44477;DHT22;30180;44.788;10.366;2023-08-24T10:03:59;27.90;58.20
44477;DHT22;30180;44.788;10.366;2023-08-24T10:06:28;27.90;58.30
44477;DHT22;30180;44.788;10.366;2023-08-24T10:09:01;27.90;58.20
44477;DHT22;30180;44.788;10.366;2023-08-24T10:11:34;27.90;58.20
44477;DHT22;30180;44.788;10.366;2023-08-24T10:14:07;27.90;58.30
44477;DHT22;30180;44.788;10.366;2023-08-24T10:16:38;27.90;58.30
44477;DHT22;30180;44.788;10.366;2023-08-24T10:19:08;27.90;58.30
44477;DHT22;30180;44.788;10.366;2023-08-24T10:21:37;27.90;58.30
44477;DHT22;30180;44.788;10.366;2023-08-24T10:24:08;27.90;58.30
44477;DHT22;30180;44.788;10.366;2023-08-24T10:26:37;27.90;58.30
44477;DHT22;30180;44.788;10.366;2023-08-24T10:29:07;27.90;58.30
44477;DHT22;30180;44.788;10.366;2023-08-24T10:31:36;27.90;58.30
44477;DHT22;30180;44.788;10.366;2023-08-24T10:34:06;27.90;58.30
44477;DHT22;30180;44.788;10.366;2023-08-24T10:36:38;27.90;58.40
44477;DHT22;30180;44.788;10.366;2023-08-24T10:39:06;27.90;58.40
44477;DHT22;30180;44.788;10.366;2023-08-24T10:41:48;27.90;59.00
44477;DHT22;30180;44.788;10.366;2023-08-24T10:44:23;27.90;58.40
44477;DHT22;30180;44.788;10.366;2023-08-24T10:47:11;27.90;58.30
44477;DHT22;30180;44.788;10.366;2023-08-24T10:49:40;27.90;58.40
44477;DHT22;30180;44.788;10.366;2023-08-24T10:52:21;27.90;58.30
44477;DHT22;30180;44.788;10.366;2023-08-24T10:54:50;27.90;58.40
44477;DHT22;30180;44.788;10.366;2023-08-24T10:57:21;27.90;58.30
44477;DHT22;30180;44.788;10.366;2023-08-24T10:59:58;27.90;58.40
44477;DHT22;30180;44.788;10.366;2023-08-24T11:02:27;27.90;58.40
44477;DHT22;30180;44.788;10.366;2023-08-24T11:05:15;27.90;58.40
44477;DHT22;30180;44.788;10.366;2023-08-24T11:07:56;27.90;58.40
44477;DHT22;30180;44.788;10.366;2023-08-24T11:10:25;27.90;58.40
44477;DHT22;30180;44.788;10.366;2023-08-24T11:13:21;27.90;59.10
44477;DHT22;30180;44.788;10.366;2023-08-24T11:15:51;27.90;58.40
44477;DHT22;30180;44.788;10.366;2023-08-24T11:18:25;27.90;58.40
44477;DHT22;30180;44.788;10.366;2023-08-24T11:20:55;27.90;58.40
44477;DHT22;30180;44.788;10.366;2023-08-24T11:23:25;27.90;58.40
44477;DHT22;30180;44.788;10.366;2023-08-24T11:25:55;27.90;58.40
44477;DHT22;30180;44.788;10.366;2023-08-24T11:28:25;27.90;58.40
44477;DHT22;30180;44.788;10.366;2023-08-24T11:30:55;27.90;58.40
44477;DHT22;30180;44.788;10.366;2023-08-24T11:33:28;27.90;58.40
44477;DHT22;30180;44.788;10.366;2023-08-24T11:35:57;27.90;58.40
44477;DHT22;30180;44.788;10.366;2023-08-24T11:38:37;27.90;58.30
44477;DHT22;30180;44.788;10.366;2023-08-24T11:41:16;27.90;58.30
44477;DHT22;30180;44.788;10.366;2023-08-24T11:43:46;27.90;58.30
44477;DHT22;30180;44.788;10.366;2023-08-24T11:46:16;27.90;58.30
44477;DHT22;30180;44.788;10.366;2023-08-24T11:48:44;27.90;58.30
44477;DHT22;30180;44.788;10.366;2023-08-24T11:51:13;27.90;58.40
44477;DHT22;30180;44.788;10.366;2023-08-24T11:53:53;27.90;58.30
44477;DHT22;30180;44.788;10.366;2023-08-24T11:56:25;27.80;58.20
44477;DHT22;30180;44.788;10.366;2023-08-24T11:58:55;27.90;58.30
44477;DHT22;30180;44.788;10.366;2023-08-24T12:01:23;27.80;58.10
44477;DHT22;30180;44.788;10.366;2023-08-24T12:03:54;27.80;58.80
44477;DHT22;30180;44.788;10.366;2023-08-24T12:06:27;27.80;58.10
44477;DHT22;30180;44.788;10.366;2023-08-24T12:08:57;27.80;58.10
44477;DHT22;30180;44.788;10.366;2023-08-24T12:11:25;27.80;58.10
44477;DHT22;30180;44.788;10.366;2023-08-24T12:13:54;27.80;58.10
44477;DHT22;30180;44.788;10.366;2023-08-24T12:16:23;27.80;58.10
44477;DHT22;30180;44.788;10.366;2023-08-24T12:18:53;27.80;58.10
44477;DHT22;30180;44.788;10.366;2023-08-24T12:21:22;27.80;58.10
44477;DHT22;30180;44.788;10.366;2023-08-24T12:23:59;27.80;58.10
44477;DHT22;30180;44.788;10.366;2023-08-24T12:26:28;27.80;58.00
44477;DHT22;30180;44.788;10.366;2023-08-24T12:29:00;27.80;58.00
44477;DHT22;30180;44.788;10.366;2023-08-24T12:31:30;27.80;58.10
44477;DHT22;30180;44.788;10.366;2023-08-24T12:34:00;27.80;58.00
44477;DHT22;30180;44.788;10.366;2023-08-24T12:36:31;27.80;58.00
44477;DHT22;30180;44.788;10.366;2023-08-24T12:39:01;27.80;58.00
44477;DHT22;30180;44.788;10.366;2023-08-24T12:41:30;27.80;58.00
44477;DHT22;30180;44.788;10.366;2023-08-24T12:43:59;27.80;58.00
44477;DHT22;30180;44.788;10.366;2023-08-24T12:46:32;27.80;57.90
44477;DHT22;30180;44.788;10.366;2023-08-24T12:49:01;27.80;57.90
44477;DHT22;30180;44.788;10.366;2023-08-24T12:51:29;27.80;58.00
44477;DHT22;30180;44.788;10.366;2023-08-24T12:53:57;27.80;57.80
44477;DHT22;30180;44.788;10.366;2023-08-24T12:56:27;27.80;57.80
44477;DHT22;30180;44.788;10.366;2023-08-24T12:58:55;27.80;57.80
44477;DHT22;30180;44.788;10.366;2023-08-24T13:01:23;27.70;57.80
44477;DHT22;30180;44.788;10.366;2023-08-24T13:03:52;27.70;57.70
44477;DHT22;30180;44.788;10.366;2023-08-24T13:06:20;27.80;57.80
44477;DHT22;30180;44.788;10.366;2023-08-24T13:08:52;27.70;57.70
44477;DHT22;30180;44.788;10.366;2023-08-24T13:11:21;27.70;57.70
44477;DHT22;30180;44.788;10.366;2023-08-24T13:13:50;27.70;57.60
44477;DHT22;30180;44.788;10.366;2023-08-24T13:16:19;27.70;57.60
44477;DHT22;30180;44.788;10.366;2023-08-24T13:18:47;27.70;57.50
44477;DHT22;30180;44.788;10.366;2023-08-24T13:21:16;27.70;57.40
44477;DHT22;30180;44.788;10.366;2023-08-24T13:23:45;27.70;57.50
44477;DHT22;30180;44.788;10.366;2023-08-24T13:26:17;27.70;57.50
44477;DHT22;30180;44.788;10.366;2023-08-24T13:28:47;27.70;57.50
44477;DHT22;30180;44.788;10.366;2023-08-24T13:31:18;27.70;57.50
44477;DHT22;30180;44.788;10.366;2023-08-24T13:33:46;27.70;57.40
44477;DHT22;30180;44.788;10.366;2023-08-24T13:36:14;27.70;57.40
44477;DHT22;30180;44.788;10.366;2023-08-24T13:38:43;27.70;57.30
44477;DHT22;30180;44.788;10.366;2023-08-24T13:41:12;27.70;57.40
44477;DHT22;30180;44.788;10.366;2023-08-24T13:43:41;27.70;57.30
44477;DHT22;30180;44.788;10.366;2023-08-24T13:46:09;27.70;57.20
44477;DHT22;30180;44.788;10.366;2023-08-24T13:48:39;27.70;57.20
44477;DHT22;30180;44.788;10.366;2023-08-24T13:51:07;27.70;57.20
44477;DHT22;30180;44.788;10.366;2023-08-24T13:53:36;27.70;57.20
44477;DHT22;30180;44.788;10.366;2023-08-24T13:56:05;27.70;57.20
44477;DHT22;30180;44.788;10.366;2023-08-24T13:58:33;27.70;57.20
44477;DHT22;30180;44.788;10.366;2023-08-24T14:01:02;27.70;57.10
44477;DHT22;30180;44.788;10.366;2023-08-24T14:03:30;27.70;57.10
44477;DHT22;30180;44.788;10.366;2023-08-24T14:06:00;27.70;57.00
44477;DHT22;30180;44.788;10.366;2023-08-24T14:08:29;27.70;57.10
44477;DHT22;30180;44.788;10.366;2023-08-24T14:10:57;27.70;57.00
44477;DHT22;30180;44.788;10.366;2023-08-24T14:13:25;27.70;57.00
44477;DHT22;30180;44.788;10.366;2023-08-24T14:15:54;27.70;57.00
44477;DHT22;30180;44.788;10.366;2023-08-24T14:18:23;27.70;57.00
44477;DHT22;30180;44.788;10.366;2023-08-24T14:20:51;27.70;56.90
44477;DHT22;30180;44.788;10.366;2023-08-24T14:23:21;27.70;56.80
44477;DHT22;30180;44.788;10.366;2023-08-24T14:25:49;27.70;56.80
44477;DHT22;30180;44.788;10.366;2023-08-24T14:28:20;27.70;56.80
44477;DHT22;30180;44.788;10.366;2023-08-24T14:30:49;27.70;56.80
44477;DHT22;30180;44.788;10.366;2023-08-24T14:33:17;27.80;56.90
44477;DHT22;30180;44.788;10.366;2023-08-24T14:35:52;27.70;56.80
44477;DHT22;30180;44.788;10.366;2023-08-24T14:38:22;27.80;56.80
44477;DHT22;30180;44.788;10.366;2023-08-24T14:40:50;27.70;56.70
44477;DHT22;30180;44.788;10.366;2023-08-24T14:43:18;27.70;56.70
44477;DHT22;30180;44.788;10.366;2023-08-24T14:45:46;27.70;56.70
44477;DHT22;30180;44.788;10.366;2023-08-24T14:48:15;27.70;56.60
44477;DHT22;30180;44.788;10.366;2023-08-24T14:50:44;27.70;56.50
44477;DHT22;30180;44.788;10.366;2023-08-24T14:53:12;27.70;56.50
44477;DHT22;30180;44.788;10.366;2023-08-24T14:55:42;27.70;56.60
44477;DHT22;30180;44.788;10.366;2023-08-24T14:58:10;27.70;57.10
44477;DHT22;30180;44.788;10.366;2023-08-24T15:00:38;27.70;56.50
44477;DHT22;30180;44.788;10.366;2023-08-24T15:03:07;27.70;56.40
44477;DHT22;30180;44.788;10.366;2023-08-24T15:05:41;27.70;56.40
44477;DHT22;30180;44.788;10.366;2023-08-24T15:08:10;27.70;56.40
44477;DHT22;30180;44.788;10.366;2023-08-24T15:10:38;27.70;56.40
44477;DHT22;30180;44.788;10.366;2023-08-24T15:13:08;27.70;56.30
44477;DHT22;30180;44.788;10.366;2023-08-24T15:15:36;27.70;56.30
44477;DHT22;30180;44.788;10.366;2023-08-24T15:18:05;27.70;56.20
44477;DHT22;30180;44.788;10.366;2023-08-24T15:20:34;27.70;56.20
44477;DHT22;30180;44.788;10.366;2023-08-24T15:23:02;27.70;56.20
44477;DHT22;30180;44.788;10.366;2023-08-24T15:25:30;27.70;56.20
44477;DHT22;30180;44.788;10.366;2023-08-24T15:27:59;27.70;56.20
44477;DHT22;30180;44.788;10.366;2023-08-24T15:30:28;27.70;56.10